Time;durP1;ratioP1;P1;durP2;ratioP2;P2;SDS_P1;SDS_P2;PMS_P1;PMS_P2;Temp;Humidity;BMP_temperature;BMP_pressure;BME280_temperature;BME280_humidity;BME280_pressure;Samples;Min_cycle;Max_cycle;Signal;HPM_P1;HPM_P2
2023/08/19 00:00:58;;;;;;;1999.90;999.90;;;23.00;96.30;;;;;;5042653;28;20205;-93
2023/08/19 00:03:24;;;;;;;1999.90;999.90;;;22.90;97.40;;;;;;5023921;28;20199;-92
2023/08/19 00:05:50;;;;;;;1999.90;999.90;;;22.80;97.70;;;;;;5041312;28;20635;-92
2023/08/19 00:08:16;;;;;;;1999.90;999.90;;;23.00;96.70;;;;;;5041231;28;20250;-93
2023/08/19 00:10:42;;;;;;;1999.90;999.90;;;23.00;96.60;;;;;;5043708;28;20195;-93
2023/08/19 00:13:08;;;;;;;1999.90;999.90;;;22.90;96.70;;;;;;5025285;28;20208;-93
2023/08/19 00:15:34;;;;;;;1999.90;999.90;;;22.90;97.40;;;;;;5043820;28;20185;-91
2023/08/19 00:18:00;;;;;;;1999.90;999.90;;;22.90;97.50;;;;;;5041962;28;20721;-94
2023/08/19 00:20:28;;;;;;;1999.90;999.90;;;23.00;96.60;;;;;;5043109;28;20205;-91
2023/08/19 00:22:56;;;;;;;1999.90;999.90;;;22.80;97.40;;;;;;5033884;28;20189;-93
2023/08/19 00:25:24;;;;;;;1999.90;999.90;;;22.90;97.50;;;;;;5010924;28;20217;-93
2023/08/19 00:27:53;;;;;;;1999.90;999.90;;;22.80;97.30;;;;;;5013923;28;20233;-93
2023/08/19 00:30:20;;;;;;;1999.90;999.90;;;22.80;97.80;;;;;;5015208;28;20170;-95
2023/08/19 00:32:47;;;;;;;1999.90;999.90;;;22.80;97.30;;;;;;5015392;28;20193;-93
2023/08/19 00:35:16;;;;;;;1999.90;999.90;;;22.90;97.20;;;;;;5009302;28;20174;-92
2023/08/19 00:37:42;;;;;;;1999.90;999.90;;;22.90;97.00;;;;;;5022728;28;20177;-94
2023/08/19 00:40:16;;;;;;;1999.90;999.90;;;22.90;97.30;;;;;;5044599;28;20669;-92
2023/08/19 00:42:43;;;;;;;1999.90;999.90;;;22.90;97.20;;;;;;5025412;28;20195;-94
2023/08/19 00:45:10;;;;;;;1999.90;999.90;;;22.90;97.00;;;;;;5042876;28;20173;-93
2023/08/19 00:47:37;;;;;;;1999.90;999.90;;;22.70;98.10;;;;;;5042566;28;20189;-93
2023/08/19 00:50:10;;;;;;;1999.90;999.90;;;22.80;97.10;;;;;;5024509;28;20630;-92
2023/08/19 00:52:37;;;;;;;1999.90;999.90;;;22.80;96.50;;;;;;5041445;28;20714;-94
2023/08/19 00:55:04;;;;;;;1999.90;999.90;;;22.80;97.00;;;;;;5039807;28;20189;-92
2023/08/19 00:57:31;;;;;;;1999.90;999.90;;;22.80;97.50;;;;;;5023985;28;20581;-93
2023/08/19 00:59:57;;;;;;;1999.90;999.90;;;22.80;97.60;;;;;;5055337;28;20215;-94
2023/08/19 01:02:22;;;;;;;1999.90;999.90;;;22.70;97.30;;;;;;5078042;28;20238;-95
2023/08/19 01:04:48;;;;;;;1999.90;999.90;;;22.70;97.80;;;;;;5062803;28;20192;-93
2023/08/19 01:07:28;;;;;;;1999.90;999.90;;;22.60;98.30;;;;;;5036579;28;20705;-94
2023/08/19 01:10:21;;;;;;;1999.90;999.90;;;22.60;98.30;;;;;;5041472;28;20204;-92
2023/08/19 01:13:06;;;;;;;1999.90;999.90;;;22.60;98.40;;;;;;5024527;28;20232;-93
2023/08/19 01:15:41;;;;;;;1999.90;999.90;;;22.60;98.40;;;;;;5042035;28;20226;-92
2023/08/19 01:18:08;;;;;;;1999.90;999.90;;;22.40;99.30;;;;;;5041848;28;20215;-93
2023/08/19 01:20:36;;;;;;;1999.90;999.90;;;22.30;99.90;;;;;;5042635;28;20589;-93
2023/08/19 01:23:16;;;;;;;1999.90;999.90;;;22.30;99.90;;;;;;5040189;28;20208;-94
2023/08/19 01:25:51;;;;;;;1999.90;999.90;;;22.30;98.90;;;;;;5041243;28;20161;-93
2023/08/19 01:28:20;;;;;;;1999.90;999.90;;;22.40;99.20;;;;;;5041831;28;20171;-95
2023/08/19 01:30:46;;;;;;;1999.90;999.90;;;22.10;99.90;;;;;;5025797;28;20189;-92
2023/08/19 01:33:12;;;;;;;1999.90;999.90;;;22.10;99.90;;;;;;5005520;28;20197;-92
2023/08/19 01:36:02;;;;;;;1999.90;999.90;;;22.20;99.90;;;;;;5041883;28;20193;-93
2023/08/19 01:38:52;;;;;;;1999.90;999.90;;;22.40;99.30;;;;;;5036701;28;20186;-93
2023/08/19 01:41:22;;;;;;;1999.90;999.90;;;22.40;99.60;;;;;;5022356;28;20206;-93
2023/08/19 01:43:49;;;;;;;1999.90;999.90;;;22.30;99.20;;;;;;5026928;28;20543;-93
2023/08/19 01:46:15;;;;;;;1999.90;999.90;;;22.30;99.80;;;;;;5023599;28;20180;-91
2023/08/19 01:48:41;;;;;;;1999.90;999.90;;;22.30;99.80;;;;;;5040841;28;20177;-94
2023/08/19 01:51:07;;;;;;;1999.90;999.90;;;22.20;99.90;;;;;;5040523;28;20180;-93
2023/08/19 01:53:32;;;;;;;1999.90;999.90;;;22.10;99.90;;;;;;5022053;28;20216;-93
2023/08/19 01:55:58;;;;;;;1999.90;999.90;;;22.20;99.90;;;;;;5039968;28;20188;-94
2023/08/19 01:58:24;;;;;;;1999.90;999.90;;;22.00;99.90;;;;;;5039817;28;20204;-93
2023/08/19 02:00:50;;;;;;;1999.90;999.90;;;22.10;99.90;;;;;;5040248;28;20189;-92
2023/08/19 02:03:15;;;;;;;1999.90;999.90;;;22.20;99.90;;;;;;5022896;28;20197;-94
2023/08/19 02:05:41;;;;;;;1999.90;999.90;;;22.20;99.90;;;;;;5040687;28;20204;-94
2023/08/19 02:08:07;;;;;;;1999.90;999.90;;;22.10;99.90;;;;;;5040974;28;20177;-93
2023/08/19 02:10:33;;;;;;;1999.90;999.90;;;22.00;99.90;;;;;;5015335;28;20185;-93
2023/08/19 02:12:58;;;;;;;1999.90;999.90;;;21.90;99.90;;;;;;5004063;28;20206;-93
2023/08/19 02:15:24;;;;;;;1999.90;999.90;;;21.80;99.90;;;;;;5022956;28;20182;-92
2023/08/19 02:17:50;;;;;;;1999.90;999.90;;;21.80;99.90;;;;;;5003495;28;20245;-93
2023/08/19 02:20:16;;;;;;;1999.90;999.90;;;21.90;99.90;;;;;;5020685;28;20666;-93
2023/08/19 02:22:41;;;;;;;1999.90;999.90;;;21.90;99.90;;;;;;5002230;28;20201;-91
2023/08/19 02:25:08;;;;;;;1999.90;999.90;;;21.80;99.90;;;;;;5013168;28;20185;-93
2023/08/19 02:27:33;;;;;;;1999.90;999.90;;;21.70;99.90;;;;;;5034648;28;20188;-92
2023/08/19 02:29:59;;;;;;;1999.90;999.90;;;21.60;99.90;;;;;;5032719;28;20180;-92
2023/08/19 02:32:26;;;;;;;1999.90;999.90;;;21.60;99.90;;;;;;5040640;28;20291;-93
2023/08/19 02:34:52;;;;;;;1999.90;999.90;;;21.70;99.90;;;;;;5022974;28;20187;-93
2023/08/19 02:37:17;;;;;;;1999.90;999.90;;;21.70;99.90;;;;;;5022306;28;20275;-93
2023/08/19 02:39:43;;;;;;;1999.90;999.90;;;21.70;99.90;;;;;;5040036;28;20176;-91
2023/08/19 02:42:11;;;;;;;1999.90;999.90;;;21.80;99.90;;;;;;5022195;28;20216;-92
2023/08/19 02:44:37;;;;;;;1999.90;999.90;;;21.90;99.90;;;;;;5039312;28;20177;-92
2023/08/19 02:47:03;;;;;;;1999.90;999.90;;;21.90;99.90;;;;;;5038145;28;20246;-91
2023/08/19 02:49:28;;;;;;;1999.90;999.90;;;21.90;99.90;;;;;;5038720;28;20181;-93
2023/08/19 02:51:54;;;;;;;1999.90;999.90;;;21.90;99.90;;;;;;5035737;28;20180;-95
2023/08/19 02:54:20;;;;;;;1999.90;999.90;;;21.90;99.90;;;;;;5019020;28;20181;-93
2023/08/19 02:56:46;;;;;;;1999.90;999.90;;;21.90;99.90;;;;;;5020099;28;20212;-93
2023/08/19 02:59:12;;;;;;;1999.90;999.90;;;21.90;99.90;;;;;;5028555;28;20654;-93
2023/08/19 03:01:38;;;;;;;1999.90;999.90;;;21.80;99.90;;;;;;5029519;28;20202;-93
2023/08/19 03:04:04;;;;;;;1999.90;999.90;;;21.70;99.90;;;;;;5021088;28;20228;-92
2023/08/19 03:06:29;;;;;;;1999.90;999.90;;;21.70;99.90;;;;;;5020478;28;20181;-94
2023/08/19 03:08:55;;;;;;;1999.90;999.90;;;21.70;99.90;;;;;;5030465;28;20272;-93
2023/08/19 03:11:21;;;;;;;1999.90;999.90;;;21.60;99.90;;;;;;5020472;28;20194;-94
2023/08/19 03:13:46;;;;;;;1999.90;999.90;;;21.60;99.90;;;;;;5020159;28;20225;-93
2023/08/19 03:16:14;;;;;;;1999.90;999.90;;;21.50;99.90;;;;;;5019867;28;20223;-94
2023/08/19 03:18:40;;;;;;;1999.90;999.90;;;21.60;99.90;;;;;;5019540;28;20677;-93
2023/08/19 03:21:05;;;;;;;1999.90;999.90;;;21.50;99.90;;;;;;5026809;28;20708;-93
2023/08/19 03:23:31;;;;;;;1999.90;999.90;;;21.60;99.90;;;;;;5039142;28;20208;-93
2023/08/19 03:25:57;;;;;;;1999.90;999.90;;;21.60;99.90;;;;;;5039232;28;20170;-93
2023/08/19 03:28:23;;;;;;;1999.90;999.90;;;21.60;99.90;;;;;;5039103;28;20196;-91
2023/08/19 03:30:52;;;;;;;1999.90;999.90;;;21.50;99.90;;;;;;5039425;28;20177;-92
2023/08/19 03:33:17;;;;;;;1999.90;999.90;;;21.60;99.90;;;;;;5039669;28;20197;-93
2023/08/19 03:35:43;;;;;;;1999.90;999.90;;;21.60;99.90;;;;;;5026195;28;20216;-93
2023/08/19 03:38:09;;;;;;;1999.90;999.90;;;21.60;99.90;;;;;;5038716;28;20468;-93
2023/08/19 03:40:34;;;;;;;1999.90;999.90;;;21.60;99.90;;;;;;5038559;28;20203;-92
2023/08/19 03:43:00;;;;;;;1999.90;999.90;;;21.60;99.90;;;;;;5021493;28;20200;-92
2023/08/19 03:45:26;;;;;;;1999.90;999.90;;;21.60;99.90;;;;;;5020197;28;20200;-93
2023/08/19 03:47:54;;;;;;;1999.90;999.90;;;21.60;99.80;;;;;;5038139;28;20184;-93
2023/08/19 03:50:20;;;;;;;1999.90;999.90;;;21.60;99.90;;;;;;5000467;28;20551;-93
2023/08/19 03:52:45;;;;;;;1999.90;999.90;;;21.60;99.90;;;;;;5036070;28;20708;-93
2023/08/19 03:55:11;;;;;;;1999.90;999.90;;;21.50;99.50;;;;;;5020265;28;20181;-93
2023/08/19 03:57:36;;;;;;;1999.90;999.90;;;21.60;99.80;;;;;;5021129;28;20185;-91
2023/08/19 04:00:03;;;;;;;1999.90;999.90;;;21.50;98.90;;;;;;5039409;28;20175;-92
2023/08/19 04:02:29;;;;;;;1999.90;999.90;;;21.30;99.80;;;;;;5038940;28;20223;-93
2023/08/19 04:05:06;;;;;;;1999.90;999.90;;;21.40;99.90;;;;;;5039283;28;20193;-93
2023/08/19 04:07:31;;;;;;;1999.90;999.90;;;21.30;99.90;;;;;;5037688;28;20173;-93
2023/08/19 04:09:57;;;;;;;1999.90;999.90;;;21.20;99.90;;;;;;5018814;28;20178;-93
2023/08/19 04:12:26;;;;;;;1999.90;999.90;;;21.00;99.90;;;;;;5018274;28;20206;-92
2023/08/19 04:14:52;;;;;;;1999.90;999.90;;;20.90;99.90;;;;;;5000996;28;20664;-92
2023/08/19 04:17:18;;;;;;;1999.90;999.90;;;21.00;99.90;;;;;;5033465;28;20180;-93
2023/08/19 04:19:44;;;;;;;1999.90;999.90;;;20.90;99.90;;;;;;5039245;28;20673;-93
2023/08/19 04:22:15;;;;;;;1999.90;999.90;;;20.90;99.90;;;;;;5038829;28;20228;-93
2023/08/19 04:24:41;;;;;;;1999.90;999.90;;;20.90;99.90;;;;;;5032729;28;20174;-93
2023/08/19 04:27:07;;;;;;;1999.90;999.90;;;20.90;99.90;;;;;;5019833;28;20200;-93
2023/08/19 04:29:33;;;;;;;1999.90;999.90;;;20.90;99.90;;;;;;5037505;28;20182;-92
2023/08/19 04:32:03;;;;;;;1999.90;999.90;;;20.80;99.90;;;;;;5038539;28;20177;-93
2023/08/19 04:34:30;;;;;;;1999.90;999.90;;;20.90;99.90;;;;;;5021745;28;20260;-92
2023/08/19 04:36:56;;;;;;;1999.90;999.90;;;20.90;99.90;;;;;;5020598;28;20181;-92
2023/08/19 04:39:22;;;;;;;1999.90;999.90;;;21.00;99.90;;;;;;5021106;28;20184;-91
2023/08/19 04:41:49;;;;;;;1999.90;999.90;;;21.00;99.90;;;;;;5040037;28;20208;-93
2023/08/19 04:44:15;;;;;;;1999.90;999.90;;;21.10;99.90;;;;;;5023708;28;20196;-93
2023/08/19 04:46:41;;;;;;;1999.90;999.90;;;21.10;99.90;;;;;;5040186;28;20175;-93
2023/08/19 04:49:07;;;;;;;1999.90;999.90;;;21.20;99.90;;;;;;5040413;28;20177;-93
2023/08/19 04:51:33;;;;;;;1999.90;999.90;;;21.20;99.90;;;;;;5040335;28;20197;-93
2023/08/19 04:53:59;;;;;;;1999.90;999.90;;;21.20;99.90;;;;;;5022879;28;20337;-93
2023/08/19 04:56:25;;;;;;;1999.90;999.90;;;21.10;99.90;;;;;;5023904;28;20192;-93
2023/08/19 04:58:51;;;;;;;1999.90;999.90;;;21.00;99.90;;;;;;5042314;28;20189;-92
2023/08/19 05:01:17;;;;;;;1999.90;999.90;;;21.00;99.90;;;;;;5042072;28;20215;-93
2023/08/19 05:03:42;;;;;;;1999.90;999.90;;;20.80;99.90;;;;;;5033355;28;20250;-92
2023/08/19 05:06:08;;;;;;;1999.90;999.90;;;20.80;99.90;;;;;;5024398;28;20708;-90
2023/08/19 05:08:34;;;;;;;1999.90;999.90;;;20.70;99.90;;;;;;5043853;28;20263;-93
2023/08/19 05:11:00;;;;;;;1999.90;999.90;;;20.70;99.90;;;;;;5040039;28;20204;-95
2023/08/19 05:13:25;;;;;;;1999.90;999.90;;;20.70;99.90;;;;;;5031341;28;20820;-92
2023/08/19 05:15:51;;;;;;;1999.90;999.90;;;20.80;99.90;;;;;;5041189;28;20191;-91
2023/08/19 05:18:17;;;;;;;1999.90;999.90;;;21.00;99.90;;;;;;5025897;28;20189;-90
2023/08/19 05:20:42;;;;;;;1999.90;999.90;;;21.10;99.90;;;;;;5042174;28;20721;-92
2023/08/19 05:23:08;;;;;;;1999.90;999.90;;;21.10;99.90;;;;;;5044503;28;20205;-93
2023/08/19 05:25:34;;;;;;;1999.90;999.90;;;21.20;99.90;;;;;;5043342;28;20169;-94
2023/08/19 05:28:00;;;;;;;1999.90;999.90;;;21.20;99.90;;;;;;5026945;28;20193;-91
2023/08/19 05:30:26;;;;;;;1999.90;999.90;;;21.20;99.90;;;;;;5048820;28;20173;-92
2023/08/19 05:32:51;;;;;;;1999.90;999.90;;;21.30;99.90;;;;;;5043133;28;20255;-92
2023/08/19 05:35:17;;;;;;;1999.90;999.90;;;21.40;99.90;;;;;;5037119;28;20184;-91
2023/08/19 05:37:43;;;;;;;1999.90;999.90;;;21.40;99.90;;;;;;5040345;28;20188;-92
2023/08/19 05:40:09;;;;;;;1999.90;999.90;;;21.50;99.90;;;;;;5021049;28;20261;-92
2023/08/19 05:42:34;;;;;;;1999.90;999.90;;;21.40;99.90;;;;;;5038691;28;20389;-92
2023/08/19 05:45:00;;;;;;;1999.90;999.90;;;21.50;99.90;;;;;;5039814;28;20244;-92
2023/08/19 05:47:26;;;;;;;1999.90;999.90;;;21.60;99.90;;;;;;5039219;28;20177;-92
2023/08/19 05:49:51;;;;;;;1999.90;999.90;;;21.70;99.90;;;;;;5038249;28;20189;-92
2023/08/19 05:52:17;;;;;;;1999.90;999.90;;;21.90;99.90;;;;;;5020418;28;20209;-94
2023/08/19 05:54:43;;;;;;;1999.90;999.90;;;22.00;99.90;;;;;;5039908;28;20173;-91
2023/08/19 05:57:08;;;;;;;1999.90;999.90;;;22.20;99.90;;;;;;5038333;28;20573;-93
2023/08/19 05:59:36;;;;;;;1999.90;999.90;;;22.20;99.90;;;;;;5040202;28;20189;-93
2023/08/19 06:02:01;;;;;;;1999.90;999.90;;;22.10;99.90;;;;;;5022710;28;20562;-93
2023/08/19 06:04:27;;;;;;;1999.90;999.90;;;21.80;99.90;;;;;;5039870;28;20177;-93
2023/08/19 06:06:54;;;;;;;1999.90;999.90;;;21.80;99.90;;;;;;5041780;28;20643;-94
2023/08/19 06:09:22;;;;;;;1999.90;999.90;;;21.90;99.90;;;;;;5041490;28;20543;-92
2023/08/19 06:11:50;;;;;;;1999.90;999.90;;;22.00;99.90;;;;;;5023683;28;20181;-91
2023/08/19 06:14:17;;;;;;;1999.90;999.90;;;22.20;99.90;;;;;;5024100;28;20200;-93
2023/08/19 06:16:45;;;;;;;1999.90;999.90;;;22.30;99.90;;;;;;5024240;28;20173;-92
2023/08/19 06:19:11;;;;;;;1999.90;999.90;;;22.40;99.90;;;;;;5021643;28;20548;-92
2023/08/19 06:21:37;;;;;;;1999.90;999.90;;;22.50;99.90;;;;;;5020766;28;20201;-92
2023/08/19 06:24:05;;;;;;;1999.90;999.90;;;22.60;99.40;;;;;;5015663;28;20231;-93
2023/08/19 06:26:36;;;;;;;1999.90;999.90;;;22.80;98.00;;;;;;5066943;22;20236;-94
2023/08/19 06:29:02;;;;;;;1999.90;999.90;;;22.90;98.70;;;;;;5068110;28;20163;-94
2023/08/19 06:31:28;;;;;;;1999.90;999.90;;;23.10;95.70;;;;;;5049513;28;20172;-95
2023/08/19 06:33:54;;;;;;;1999.90;999.90;;;23.20;95.70;;;;;;5066965;28;20219;-95
2023/08/19 06:36:28;;;;;;;1999.90;999.90;;;23.30;95.20;;;;;;5066291;28;20211;-93
2023/08/19 06:39:06;;;;;;;1999.90;999.90;;;23.40;93.90;;;;;;5050154;28;20219;-92
2023/08/19 06:42:04;;;;;;;1999.90;999.90;;;23.50;95.60;;;;;;5050587;28;20212;-94
2023/08/19 06:44:38;;;;;;;1999.90;999.90;;;23.70;95.40;;;;;;5060842;28;20196;-94
2023/08/19 06:47:42;;;;;;;1999.90;999.90;;;23.80;95.00;;;;;;5066858;28;20681;-95
2023/08/19 06:50:16;;;;;;;1999.90;999.90;;;23.90;94.20;;;;;;5066916;28;20184;-93
2023/08/19 06:52:43;;;;;;;1999.90;999.90;;;24.00;92.90;;;;;;5049263;28;20180;-94
2023/08/19 06:55:13;;;;;;;1999.90;999.90;;;24.10;93.40;;;;;;5067945;28;20205;-94
2023/08/19 06:58:04;;;;;;;1999.90;999.90;;;24.20;90.60;;;;;;5064688;28;20200;-93
2023/08/19 07:00:35;;;;;;;1999.90;999.90;;;24.40;90.90;;;;;;5044069;28;20176;-93
2023/08/19 07:03:05;;;;;;;1999.90;999.90;;;24.60;87.90;;;;;;5028575;28;20168;-93
2023/08/19 07:05:42;;;;;;;1999.90;999.90;;;24.60;87.80;;;;;;5029324;28;20279;-93
2023/08/19 07:08:37;;;;;;;1999.90;999.90;;;24.60;85.20;;;;;;5050176;28;20214;-93
2023/08/19 07:11:39;;;;;;;1999.90;999.90;;;24.60;86.30;;;;;;5053099;28;20180;-91
2023/08/19 07:14:20;;;;;;;1999.90;999.90;;;24.70;84.60;;;;;;5070721;28;20159;-92
2023/08/19 07:17:09;;;;;;;1999.90;999.90;;;24.70;85.10;;;;;;5070683;28;20234;-94
2023/08/19 07:19:41;;;;;;;1999.90;999.90;;;25.10;84.50;;;;;;5060082;28;20199;-92
2023/08/19 07:22:31;;;;;;;1999.90;999.90;;;25.10;84.00;;;;;;5050488;28;20211;-92
2023/08/19 07:25:07;;;;;;;1999.90;999.90;;;25.20;84.20;;;;;;5041342;28;20214;-92
2023/08/19 07:27:35;;;;;;;1999.90;999.90;;;25.20;84.70;;;;;;5070120;28;20224;-92
2023/08/19 07:30:07;;;;;;;1999.90;999.90;;;25.50;82.50;;;;;;5074912;28;20183;-93
2023/08/19 07:33:04;;;;;;;1999.90;999.90;;;25.60;82.40;;;;;;5058363;28;20202;-91
2023/08/19 07:36:16;;;;;;;1999.90;999.90;;;25.80;81.30;;;;;;5064730;28;20184;-94
2023/08/19 07:39:25;;;;;;;1999.90;999.90;;;26.00;79.10;;;;;;5066690;28;20185;-93
2023/08/19 07:41:51;;;;;;;1999.90;999.90;;;26.00;77.90;;;;;;5027778;28;20254;-95
2023/08/19 07:44:16;;;;;;;1999.90;999.90;;;26.30;77.50;;;;;;5065817;28;20176;-93
2023/08/19 07:46:53;;;;;;;1999.90;999.90;;;26.50;75.90;;;;;;5065117;28;20240;-93
2023/08/19 07:49:19;;;;;;;1999.90;999.90;;;26.30;77.70;;;;;;5039479;28;20524;-92
2023/08/19 07:51:45;;;;;;;1999.90;999.90;;;26.60;75.90;;;;;;5024663;28;20195;-91
2023/08/19 07:54:11;;;;;;;1999.90;999.90;;;26.80;76.70;;;;;;5045411;28;20183;-92
2023/08/19 07:56:36;;;;;;;1999.90;999.90;;;27.00;74.90;;;;;;5047784;28;20192;-92
2023/08/19 07:59:03;;;;;;;1999.90;999.90;;;27.20;73.00;;;;;;5040806;28;20174;-93
2023/08/19 08:01:29;;;;;;;1999.90;999.90;;;27.10;71.80;;;;;;5039289;28;20200;-92
2023/08/19 08:03:55;;;;;;;1999.90;999.90;;;27.40;71.00;;;;;;5021427;28;20232;-93
2023/08/19 08:06:20;;;;;;;1999.90;999.90;;;27.50;70.10;;;;;;5020951;28;20248;-92
2023/08/19 08:08:46;;;;;;;1999.90;999.90;;;27.60;70.50;;;;;;5036315;28;20180;-92
2023/08/19 08:11:12;;;;;;;1999.90;999.90;;;27.70;68.50;;;;;;5059687;28;20613;-91
2023/08/19 08:13:37;;;;;;;1999.90;999.90;;;27.40;67.80;;;;;;5058993;28;20248;-93
2023/08/19 08:16:03;;;;;;;1999.90;999.90;;;27.60;68.70;;;;;;5062744;28;20176;-94
2023/08/19 08:18:29;;;;;;;1999.90;999.90;;;27.50;67.10;;;;;;5054396;28;20246;-94
2023/08/19 08:21:12;;;;;;;1999.90;999.90;;;27.80;68.00;;;;;;5045348;28;20248;-93
2023/08/19 08:23:38;;;;;;;1999.90;999.90;;;27.80;65.70;;;;;;5044560;28;20249;-94
2023/08/19 08:26:11;;;;;;;1999.90;999.90;;;28.20;65.30;;;;;;5038420;28;20173;-93
2023/08/19 08:28:37;;;;;;;1999.90;999.90;;;28.50;65.10;;;;;;5066562;28;20196;-94
2023/08/19 08:31:03;;;;;;;1999.90;999.90;;;28.80;63.10;;;;;;5062418;28;20242;-95
2023/08/19 08:33:32;;;;;;;1999.90;999.90;;;29.00;62.70;;;;;;5069060;28;20191;-94
2023/08/19 08:35:59;;;;;;;1999.90;999.90;;;29.20;60.90;;;;;;5066380;28;20283;-94
2023/08/19 08:38:33;;;;;;;1999.90;999.90;;;29.20;60.10;;;;;;5064908;28;20196;-93
2023/08/19 08:41:02;;;;;;;1999.90;999.90;;;29.10;58.70;;;;;;5064527;28;20290;-94
2023/08/19 08:43:41;;;;;;;1999.90;999.90;;;29.30;59.60;;;;;;5065046;28;20172;-94
2023/08/19 08:46:07;;;;;;;1999.90;999.90;;;29.80;58.90;;;;;;5050436;28;20164;-93
2023/08/19 08:48:36;;;;;;;1999.90;999.90;;;29.80;59.70;;;;;;5055453;28;20191;-93
2023/08/19 08:51:02;;;;;;;1999.90;999.90;;;29.70;59.00;;;;;;5047084;28;20172;-94
2023/08/19 08:53:32;;;;;;;1999.90;999.90;;;29.80;59.50;;;;;;5069337;28;20169;-94
2023/08/19 08:55:59;;;;;;;1999.90;999.90;;;30.00;59.40;;;;;;5047955;28;20188;-93
2023/08/19 08:58:24;;;;;;;1999.90;999.90;;;29.90;59.20;;;;;;5070747;28;20203;-94
2023/08/19 09:00:50;;;;;;;1999.90;999.90;;;29.70;58.20;;;;;;5072032;28;20204;-94
2023/08/19 09:03:22;;;;;;;1999.90;999.90;;;29.50;60.00;;;;;;5071992;28;20172;-93
2023/08/19 09:05:51;;;;;;;1999.90;999.90;;;29.60;59.60;;;;;;5071037;28;20687;-95
2023/08/19 09:08:25;;;;;;;1999.90;999.90;;;29.10;61.00;;;;;;5070716;28;20669;-94
2023/08/19 09:10:51;;;;;;;1999.90;999.90;;;29.40;61.90;;;;;;5070423;28;20176;-94
2023/08/19 09:13:21;;;;;;;1999.90;999.90;;;29.40;61.70;;;;;;5071231;28;20181;-94
2023/08/19 09:15:47;;;;;;;1999.90;999.90;;;29.30;59.90;;;;;;5071171;28;20176;-94
2023/08/19 09:18:13;;;;;;;1999.90;999.90;;;29.10;63.90;;;;;;5053796;28;20226;-94
2023/08/19 09:20:40;;;;;;;1999.90;999.90;;;29.00;65.10;;;;;;5053242;28;20180;-93
2023/08/19 09:23:10;;;;;;;1999.90;999.90;;;29.20;65.60;;;;;;5071661;28;20175;-95
2023/08/19 09:25:39;;;;;;;1999.90;999.90;;;29.10;67.00;;;;;;5069926;28;20247;-94
2023/08/19 09:28:06;;;;;;;1999.90;999.90;;;29.30;65.20;;;;;;5071331;28;20208;-95
2023/08/19 09:30:35;;;;;;;1999.90;999.90;;;29.70;65.30;;;;;;5070028;28;20168;-95
2023/08/19 09:33:01;;;;;;;1999.90;999.90;;;29.70;63.40;;;;;;5067203;28;20204;-96
2023/08/19 09:35:38;;;;;;;1999.90;999.90;;;29.60;64.80;;;;;;5066367;28;20195;-94
2023/08/19 09:38:20;;;;;;;1999.90;999.90;;;30.00;64.60;;;;;;5050069;28;20232;-94
2023/08/19 09:40:55;;;;;;;1999.90;999.90;;;30.40;61.40;;;;;;5049808;28;20234;-94
2023/08/19 09:43:21;;;;;;;1999.90;999.90;;;30.40;61.00;;;;;;5067405;28;20172;-95
2023/08/19 09:45:49;;;;;;;1999.90;999.90;;;30.30;61.00;;;;;;5068065;28;20168;-95
2023/08/19 09:48:15;;;;;;;1999.90;999.90;;;30.40;61.00;;;;;;5069736;28;20200;-94
2023/08/19 09:50:45;;;;;;;1999.90;999.90;;;30.60;61.40;;;;;;5074283;28;20210;-95
2023/08/19 09:53:15;;;;;;;1999.90;999.90;;;30.80;60.60;;;;;;5072387;28;20164;-94
2023/08/19 09:55:45;;;;;;;1999.90;999.90;;;31.10;60.20;;;;;;5054605;28;20173;-93
2023/08/19 09:58:11;;;;;;;1999.90;999.90;;;31.40;57.20;;;;;;5069647;28;20196;-94
2023/08/19 10:00:37;;;;;;;1999.90;999.90;;;31.70;55.80;;;;;;5068623;28;20271;-94
2023/08/19 10:03:07;;;;;;;1999.90;999.90;;;31.10;55.60;;;;;;5050853;28;20200;-94
2023/08/19 10:05:39;;;;;;;1999.90;999.90;;;31.10;57.80;;;;;;5069103;28;20218;-92
2023/08/19 10:08:08;;;;;;;1999.90;999.90;;;31.30;57.40;;;;;;5067683;28;20200;-95
2023/08/19 10:10:40;;;;;;;1999.90;999.90;;;31.20;57.50;;;;;;5069345;28;20554;-95
2023/08/19 10:13:09;;;;;;;1999.90;999.90;;;30.60;57.60;;;;;;5059846;28;20281;-95
2023/08/19 10:15:39;;;;;;;1999.90;999.90;;;30.90;57.10;;;;;;5033158;28;20208;-92
2023/08/19 10:18:13;;;;;;;1999.90;999.90;;;30.90;59.80;;;;;;5032869;28;20264;-93
2023/08/19 10:20:40;;;;;;;1999.90;999.90;;;31.10;60.40;;;;;;5051144;28;20157;-94
2023/08/19 10:23:08;;;;;;;1999.90;999.90;;;30.90;60.50;;;;;;5061866;28;20187;-93
2023/08/19 10:25:37;;;;;;;1999.90;999.90;;;30.80;61.20;;;;;;5070253;28;20172;-94
2023/08/19 10:28:07;;;;;;;1999.90;999.90;;;30.90;60.50;;;;;;5058818;28;20216;-93
2023/08/19 10:30:32;;;;;;;1999.90;999.90;;;30.80;58.30;;;;;;5051650;28;20181;-95
2023/08/19 10:33:04;;;;;;;1999.90;999.90;;;30.90;59.00;;;;;;5033705;28;20196;-96
2023/08/19 10:36:00;;;;;;;1999.90;999.90;;;30.80;58.30;;;;;;5036484;28;20200;-96
2023/08/19 10:38:54;;;;;;;1999.90;999.90;;;31.00;59.00;;;;;;5052730;28;20267;-94
2023/08/19 10:41:29;;;;;;;1999.90;999.90;;;30.60;59.90;;;;;;5066604;28;20200;-93
2023/08/19 10:44:12;;;;;;;1999.90;999.90;;;30.60;60.40;;;;;;5049553;28;20172;-93
2023/08/19 10:46:49;;;;;;;1999.90;999.90;;;30.50;61.50;;;;;;5050010;28;20200;-93
2023/08/19 10:49:19;;;;;;;1999.90;999.90;;;30.20;59.50;;;;;;5065144;28;20168;-93
2023/08/19 10:52:00;;;;;;;1999.90;999.90;;;30.40;60.70;;;;;;5067098;28;20188;-93
2023/08/19 10:54:44;;;;;;;1999.90;999.90;;;30.40;59.90;;;;;;5049456;28;20176;-92
2023/08/19 10:57:22;;;;;;;1999.90;999.90;;;30.20;61.20;;;;;;5066429;28;20283;-95
2023/08/19 10:59:58;;;;;;;1999.90;999.90;;;30.40;61.90;;;;;;5046427;28;20633;-93
2023/08/19 11:02:26;;;;;;;1999.90;999.90;;;30.40;62.70;;;;;;5063552;28;20271;-92
2023/08/19 11:04:53;;;;;;;1999.90;999.90;;;30.50;61.70;;;;;;5064485;28;20184;-93
2023/08/19 11:07:20;;;;;;;1999.90;999.90;;;31.00;60.60;;;;;;5064856;28;20243;-94
2023/08/19 11:09:48;;;;;;;1999.90;999.90;;;31.10;59.40;;;;;;5065239;28;20306;-91
2023/08/19 11:12:26;;;;;;;1999.90;999.90;;;31.60;57.10;;;;;;5067211;28;20180;-93
2023/08/19 11:14:55;;;;;;;1999.90;999.90;;;31.60;56.80;;;;;;5070481;28;20219;-92
2023/08/19 11:17:30;;;;;;;1999.90;999.90;;;31.90;55.10;;;;;;5036116;28;20681;-92
2023/08/19 11:19:59;;;;;;;1999.90;999.90;;;31.80;55.00;;;;;;5068452;28;20179;-94
2023/08/19 11:22:24;;;;;;;1999.90;999.90;;;31.50;56.00;;;;;;5064037;28;20208;-93
2023/08/19 11:24:51;;;;;;;1999.90;999.90;;;31.10;58.10;;;;;;5046615;28;20183;-92
2023/08/19 11:27:17;;;;;;;1999.90;999.90;;;31.30;56.20;;;;;;5062889;28;20270;-93
2023/08/19 11:29:47;;;;;;;1999.90;999.90;;;31.30;57.70;;;;;;5063909;28;20267;-92
2023/08/19 11:32:21;;;;;;;1999.90;999.90;;;30.90;55.80;;;;;;5063554;28;20229;-92
2023/08/19 11:34:48;;;;;;;1999.90;999.90;;;31.00;59.20;;;;;;5056250;28;20180;-92
2023/08/19 11:37:15;;;;;;;1999.90;999.90;;;31.20;58.70;;;;;;5025927;28;20196;-93
2023/08/19 11:39:44;;;;;;;1999.90;999.90;;;31.20;57.90;;;;;;5046888;28;20190;-94
2023/08/19 11:42:10;;;;;;;1999.90;999.90;;;31.50;58.70;;;;;;5047455;28;20204;-93
2023/08/19 11:44:35;;;;;;;1999.90;999.90;;;31.70;59.30;;;;;;5063868;28;20211;-94
2023/08/19 11:47:01;;;;;;;1999.90;999.90;;;31.40;57.80;;;;;;5064693;28;20192;-92
2023/08/19 11:49:29;;;;;;;1999.90;999.90;;;31.30;58.40;;;;;;5065004;28;20172;-92
2023/08/19 11:51:58;;;;;;;1999.90;999.90;;;31.20;59.10;;;;;;5068533;28;20746;-93
2023/08/19 11:54:24;;;;;;;1999.90;999.90;;;31.40;58.10;;;;;;5068153;28;20240;-93
2023/08/19 11:56:54;;;;;;;1999.90;999.90;;;31.30;59.00;;;;;;5068021;28;20192;-94
2023/08/19 11:59:31;;;;;;;1999.90;999.90;;;31.30;59.40;;;;;;5067131;28;20252;-93
2023/08/19 12:01:57;;;;;;;1999.90;999.90;;;31.20;56.30;;;;;;5051425;28;20203;-92
2023/08/19 12:04:23;;;;;;;1999.90;999.90;;;31.40;56.20;;;;;;5068523;28;20190;-93
2023/08/19 12:06:49;;;;;;;1999.90;999.90;;;31.30;56.90;;;;;;5043788;28;20193;-92
2023/08/19 12:09:18;;;;;;;1999.90;999.90;;;31.40;55.90;;;;;;5029678;28;20733;-94